La rose des vents
Donnes mto: Semaine 14/01/08 - 20/01/08 (S 3)
Date Horaire Temp. E. Hum. E. P.atmo. Pluie Vent 1mn Direction Ensoleilleme Ev.Tr. Solaire P. de rose Temp au vent Rafales
14/01/2008 00:00 7,1 C 78 % 1017,6 hPa 0,0 l/m 9,0 km/h (2 Bft) O-NO 0,00 h 0,025 mm 0 W/m 3,6 C 5,4 C 12,0 km/h (2 Bft)
14/01/2008 01:00 7,0 C 78 % 1017,6 hPa 0,0 l/m 4,7 km/h (1 Bft) O-NO 0,00 h 0,025 mm 0 W/m 3,4 C 6,3 C 6,9 km/h (2 Bft)
14/01/2008 02:00 7,1 C 79 % 1017,5 hPa 0,0 l/m 1,4 km/h (1 Bft) NO 0,00 h 0,025 mm 0 W/m 3,6 C 7,0 C 2,2 km/h (1 Bft)
14/01/2008 03:00 6,5 C 77 % 1017,3 hPa 0,0 l/m 1,9 km/h (1 Bft) NO 0,00 h 0,025 mm 0 W/m 2,9 C 6,5 C 3,2 km/h (1 Bft)
14/01/2008 04:00 6,2 C 81 % 1017,0 hPa 0,0 l/m 3,9 km/h (1 Bft) O 0,00 h 0,025 mm 0 W/m 3,2 C 5,8 C 5,2 km/h (1 Bft)
14/01/2008 05:00 6,0 C 81 % 1017,2 hPa 0,0 l/m 3,4 km/h (1 Bft) N-NO 0,00 h 0,025 mm 0 W/m 2,9 C 5,6 C 5,5 km/h (1 Bft)
14/01/2008 06:00 5,9 C 80 % 1017,2 hPa 0,0 l/m 0,2 km/h (0 Bft) N-NO 0,00 h 0,025 mm 0 W/m 2,8 C 5,9 C 0,4 km/h (0 Bft)
14/01/2008 07:00 5,8 C 81 % 1017,7 hPa 0,0 l/m 1,9 km/h (1 Bft) N-NO 0,00 h 0,025 mm 0 W/m 2,7 C 5,7 C 3,3 km/h (1 Bft)
14/01/2008 08:00 5,6 C 81 % 1018,1 hPa 0,0 l/m 3,5 km/h (1 Bft) N-NO 0,10 h 0,000 mm 33 W/m 2,6 C 5,3 C 5,8 km/h (2 Bft)
14/01/2008 09:00 7,7 C 77 % 1018,6 hPa 0,0 l/m 2,0 km/h (1 Bft) N 0,95 h 0,025 mm 130 W/m 3,9 C 7,7 C 4,1 km/h (1 Bft)
14/01/2008 10:00 9,1 C 74 % 1019,1 hPa 0,0 l/m 3,8 km/h (1 Bft) N 0,38 h 0,076 mm 165 W/m 4,8 C 9,0 C 6,1 km/h (2 Bft)
14/01/2008 11:00 9,6 C 76 % 1018,7 hPa 0,0 l/m 6,7 km/h (2 Bft) N-NE 0,00 h 0,102 mm 114 W/m 5,6 C 8,9 C 10,0 km/h (2 Bft)
14/01/2008 12:00 9,6 C 78 % 1018,0 hPa 0,2 l/m 4,2 km/h (1 Bft) NE 0,00 h 0,076 mm 98 W/m 5,9 C 9,4 C 6,4 km/h (2 Bft)
14/01/2008 13:00 8,6 C 83 % 1017,3 hPa 0,6 l/m 4,3 km/h (1 Bft) NE 0,00 h 0,051 mm 36 W/m 5,9 C 8,2 C 6,6 km/h (2 Bft)
14/01/2008 14:00 7,9 C 88 % 1016,8 hPa 0,2 l/m 3,8 km/h (1 Bft) N 0,00 h 0,025 mm 36 W/m 6,0 C 7,7 C 6,4 km/h (2 Bft)
14/01/2008 15:00 7,5 C 90 % 1016,6 hPa 1,4 l/m 3,8 km/h (1 Bft) N 0,00 h 0,025 mm 20 W/m 5,9 C 7,2 C 6,6 km/h (2 Bft)
14/01/2008 16:00 7,1 C 91 % 1016,5 hPa 2,2 l/m 4,8 km/h (1 Bft) N 0,00 h 0,025 mm 12 W/m 5,8 C 6,5 C 7,8 km/h (2 Bft)
14/01/2008 17:00 6,9 C 92 % 1016,4 hPa 2,4 l/m 5,1 km/h (1 Bft) N 0,00 h 0,000 mm 0 W/m 5,8 C 6,2 C 8,5 km/h (2 Bft)
14/01/2008 18:00 6,9 C 93 % 1016,2 hPa 4,0 l/m 4,8 km/h (1 Bft) N 0,00 h 0,000 mm 0 W/m 6,0 C 6,3 C 7,7 km/h (2 Bft)
14/01/2008 19:00 6,9 C 94 % 1016,2 hPa 3,0 l/m 6,2 km/h (2 Bft) NE 0,00 h 0,000 mm 0 W/m 6,0 C 5,9 C 9,5 km/h (2 Bft)
14/01/2008 20:00 6,9 C 95 % 1016,1 hPa 4,0 l/m 4,0 km/h (1 Bft) N 0,00 h 0,000 mm 0 W/m 6,1 C 6,5 C 6,8 km/h (2 Bft)
14/01/2008 21:00 7,2 C 95 % 1015,7 hPa 8,0 l/m 5,9 km/h (2 Bft) N 0,00 h 0,000 mm 0 W/m 6,4 C 6,3 C 10,3 km/h (2 Bft)
14/01/2008 22:00 6,8 C 95 % 1014,9 hPa 6,8 l/m 8,7 km/h (2 Bft) N 0,00 h 0,000 mm 0 W/m 6,0 C 5,1 C 15,6 km/h (3 Bft)
14/01/2008 23:00 5,8 C 95 % 1014,8 hPa 4,4 l/m 5,8 km/h (2 Bft) N 0,00 h 0,025 mm 0 W/m 5,1 C 4,8 C 9,8 km/h (2 Bft)
15/01/2008 00:00 6,5 C 96 % 1014,6 hPa 3,0 l/m 7,7 km/h (2 Bft) N-NE 0,00 h 0,000 mm 0 W/m 5,9 C 5,1 C 11,9 km/h (2 Bft)
15/01/2008 01:00 6,3 C 96 % 1014,4 hPa 5,8 l/m 10,7 km/h (2 Bft) N-NE 0,00 h 0,000 mm 0 W/m 5,8 C 4,2 C 17,5 km/h (3 Bft)
15/01/2008 02:00 6,2 C 96 % 1014,3 hPa 3,8 l/m 8,0 km/h (2 Bft) N 0,00 h 0,025 mm 0 W/m 5,6 C 4,6 C 14,4 km/h (3 Bft)
15/01/2008 03:00 6,1 C 96 % 1014,1 hPa 1,0 l/m 7,0 km/h (2 Bft) N 0,00 h 0,000 mm 0 W/m 5,5 C 4,7 C 11,4 km/h (2 Bft)
15/01/2008 04:00 5,8 C 96 % 1014,0 hPa 0,0 l/m 7,5 km/h (2 Bft) NE 0,00 h 0,000 mm 0 W/m 5,2 C 4,2 C 10,9 km/h (2 Bft)
15/01/2008 05:00 5,0 C 96 % 1014,3 hPa 0,0 l/m 8,5 km/h (2 Bft) N-NE 0,00 h 0,000 mm 0 W/m 4,4 C 3,1 C 12,6 km/h (3 Bft)
15/01/2008 06:00 5,5 C 96 % 1014,4 hPa 0,0 l/m 5,1 km/h (1 Bft) N-NE 0,00 h 0,000 mm 0 W/m 5,0 C 4,6 C 7,5 km/h (2 Bft)
15/01/2008 07:00 5,9 C 96 % 1014,7 hPa 0,2 l/m 2,4 km/h (1 Bft) N-NO 0,00 h 0,000 mm 0 W/m 5,4 C 5,8 C 4,0 km/h (1 Bft)
15/01/2008 08:00 6,4 C 96 % 1015,1 hPa 0,0 l/m 2,9 km/h (1 Bft) N-NO 0,00 h 0,000 mm 15 W/m 5,9 C 6,3 C 4,9 km/h (1 Bft)
15/01/2008 09:00 7,3 C 96 % 1015,2 hPa 0,0 l/m 1,4 km/h (1 Bft) N 0,30 h 0,000 mm 105 W/m 6,7 C 7,2 C 2,4 km/h (1 Bft)
15/01/2008 10:00 8,5 C 93 % 1015,9 hPa 0,0 l/m 1,0 km/h (0 Bft) N-NE 0,25 h 0,051 mm 176 W/m 7,5 C 8,5 C 1,9 km/h (1 Bft)
15/01/2008 11:00 10,0 C 88 % 1016,0 hPa 0,0 l/m 0,2 km/h (0 Bft) N-NE 0,13 h 0,076 mm 158 W/m 8,1 C 10,0 C 0,6 km/h (0 Bft)
15/01/2008 12:00 9,9 C 85 % 1015,4 hPa 0,0 l/m 9,0 km/h (2 Bft) SO 0,00 h 0,076 mm 100 W/m 7,6 C 8,9 C 12,1 km/h (2 Bft)
15/01/2008 13:00 10,4 C 79 % 1015,0 hPa 0,0 l/m 9,1 km/h (2 Bft) O-SO 0,00 h 0,076 mm 177 W/m 6,9 C 10,1 C 12,4 km/h (3 Bft)
15/01/2008 14:00 10,5 C 78 % 1014,8 hPa 0,0 l/m 13,5 km/h (3 Bft) SO 0,00 h 0,102 mm 128 W/m 6,8 C 10,5 C 17,8 km/h (3 Bft)
15/01/2008 15:00 10,7 C 78 % 1014,7 hPa 0,0 l/m 11,6 km/h (2 Bft) SO 0,58 h 0,102 mm 149 W/m 6,9 C 10,7 C 15,4 km/h (3 Bft)
15/01/2008 16:00 10,2 C 77 % 1014,8 hPa 0,0 l/m 12,3 km/h (3 Bft) SO 0,12 h 0,102 mm 54 W/m 6,3 C 9,4 C 15,9 km/h (3 Bft)
15/01/2008 17:00 8,8 C 82 % 1014,8 hPa 0,0 l/m 12,7 km/h (3 Bft) O-SO 0,02 h 0,051 mm 10 W/m 5,9 C 6,7 C 17,1 km/h (3 Bft)
15/01/2008 18:00 8,4 C 85 % 1014,9 hPa 0,0 l/m 12,0 km/h (2 Bft) O-SO 0,00 h 0,025 mm 0 W/m 6,0 C 6,4 C 16,7 km/h (3 Bft)
15/01/2008 19:00 8,7 C 83 % 1014,9 hPa 0,0 l/m 7,9 km/h (2 Bft) O 0,00 h 0,025 mm 0 W/m 6,0 C 7,6 C 11,6 km/h (2 Bft)
15/01/2008 20:00 8,8 C 83 % 1014,8 hPa 0,0 l/m 6,5 km/h (2 Bft) O 0,00 h 0,025 mm 0 W/m 6,0 C 8,0 C 9,5 km/h (2 Bft)
15/01/2008 21:00 8,8 C 86 % 1014,5 hPa 0,0 l/m 4,6 km/h (1 Bft) O-SO 0,00 h 0,025 mm 0 W/m 6,6 C 8,4 C 6,9 km/h (2 Bft)
15/01/2008 22:00 8,9 C 87 % 1014,3 hPa 0,0 l/m 9,0 km/h (2 Bft) S-SE 0,00 h 0,025 mm 0 W/m 6,9 C 7,6 C 12,8 km/h (3 Bft)
15/01/2008 23:00 9,1 C 87 % 1013,7 hPa 0,0 l/m 4,7 km/h (1 Bft) S-SE 0,00 h 0,025 mm 0 W/m 7,1 C 8,7 C 7,2 km/h (2 Bft)
16/01/2008 00:00 8,7 C 89 % 1013,2 hPa 0,0 l/m 1,5 km/h (1 Bft) S-SE 0,00 h 0,025 mm 0 W/m 6,9 C 8,7 C 2,8 km/h (1 Bft)
16/01/2008 01:00 8,2 C 90 % 1011,9 hPa 0,0 l/m 2,3 km/h (1 Bft) N 0,00 h 0,025 mm 0 W/m 6,7 C 8,1 C 4,2 km/h (1 Bft)
16/01/2008 02:00 8,1 C 91 % 1011,1 hPa 1,4 l/m 2,3 km/h (1 Bft) N-NE 0,00 h 0,025 mm 0 W/m 6,8 C 8,0 C 4,2 km/h (1 Bft)
16/01/2008 03:00 8,0 C 93 % 1010,1 hPa 4,4 l/m 3,2 km/h (1 Bft) N 0,00 h 0,000 mm 0 W/m 6,9 C 7,8 C 5,6 km/h (1 Bft)
16/01/2008 04:00 7,8 C 93 % 1008,9 hPa 1,2 l/m 2,7 km/h (1 Bft) N 0,00 h 0,000 mm 0 W/m 6,7 C 7,6 C 4,9 km/h (1 Bft)
16/01/2008 05:00 7,6 C 94 % 1007,7 hPa 2,0 l/m 2,7 km/h (1 Bft) N-NO 0,00 h 0,000 mm 0 W/m 6,7 C 7,4 C 4,3 km/h (1 Bft)
16/01/2008 06:00 7,5 C 94 % 1006,8 hPa 1,4 l/m 1,4 km/h (1 Bft) N-NO 0,00 h 0,000 mm 0 W/m 6,6 C 7,5 C 2,8 km/h (1 Bft)
16/01/2008 07:00 7,7 C 95 % 1005,9 hPa 2,2 l/m 2,9 km/h (1 Bft) N 0,00 h 0,000 mm 0 W/m 6,9 C 7,5 C 5,0 km/h (1 Bft)
16/01/2008 08:00 7,9 C 95 % 1004,7 hPa 2,0 l/m 3,3 km/h (1 Bft) N 0,00 h 0,000 mm 7 W/m 7,1 C 7,7 C 6,0 km/h (2 Bft)
16/01/2008 09:00 8,2 C 95 % 1003,9 hPa 3,4 l/m 2,4 km/h (1 Bft) N 0,00 h 0,000 mm 12 W/m 7,5 C 8,1 C 4,4 km/h (1 Bft)
16/01/2008 10:00 8,5 C 96 % 1003,1 hPa 4,4 l/m 4,0 km/h (1 Bft) N 0,00 h 0,000 mm 29 W/m 7,9 C 8,2 C 6,6 km/h (2 Bft)
16/01/2008 11:00 9,1 C 96 % 1002,8 hPa 0,0 l/m 2,1 km/h (1 Bft) N-NE 0,00 h 0,025 mm 115 W/m 8,6 C 9,0 C 3,6 km/h (1 Bft)
16/01/2008 12:00 9,5 C 97 % 1002,2 hPa 0,0 l/m 1,8 km/h (1 Bft) N-NE 0,00 h 0,051 mm 114 W/m 9,1 C 9,5 C 2,6 km/h (1 Bft)
16/01/2008 13:00 9,9 C 97 % 1002,2 hPa 0,0 l/m 2,3 km/h (1 Bft) N-NE 0,00 h 0,051 mm 111 W/m 9,4 C 9,8 C 3,5 km/h (1 Bft)
16/01/2008 14:00 9,5 C 97 % 1002,0 hPa 0,0 l/m 0,3 km/h (0 Bft) NE 0,00 h 0,051 mm 102 W/m 9,1 C 9,5 C 1,1 km/h (1 Bft)
16/01/2008 15:00 9,9 C 98 % 1001,8 hPa 0,0 l/m 1,7 km/h (1 Bft) NE 0,00 h 0,051 mm 77 W/m 9,6 C 9,9 C 2,5 km/h (1 Bft)
16/01/2008 16:00 9,4 C 97 % 1001,4 hPa 0,0 l/m 0,5 km/h (0 Bft) NE 0,00 h 0,025 mm 28 W/m 9,0 C 9,4 C 1,3 km/h (1 Bft)
16/01/2008 17:00 8,8 C 97 % 1001,6 hPa 0,0 l/m 3,9 km/h (1 Bft) E-NE 0,00 h 0,025 mm 7 W/m 8,4 C 8,4 C 5,4 km/h (1 Bft)
16/01/2008 18:00 7,4 C 97 % 1002,8 hPa 0,0 l/m 4,2 km/h (1 Bft) E-NE 0,00 h 0,000 mm 0 W/m 6,9 C 6,8 C 6,5 km/h (2 Bft)
16/01/2008 19:00 7,8 C 98 % 1004,1 hPa 0,0 l/m 4,0 km/h (1 Bft) NE 0,00 h 0,000 mm 0 W/m 7,4 C 7,3 C 6,3 km/h (2 Bft)
16/01/2008 20:00 8,0 C 97 % 1004,6 hPa 0,0 l/m 3,1 km/h (1 Bft) N-NO 0,00 h 0,000 mm 0 W/m 7,6 C 7,8 C 4,5 km/h (1 Bft)
16/01/2008 21:00 7,9 C 97 % 1004,9 hPa 0,0 l/m 3,0 km/h (1 Bft) NO 0,00 h 0,000 mm 0 W/m 7,4 C 7,7 C 4,3 km/h (1 Bft)
16/01/2008 22:00 7,5 C 97 % 1005,5 hPa 0,0 l/m 4,4 km/h (1 Bft) NO 0,00 h 0,000 mm 0 W/m 7,1 C 7,0 C 6,3 km/h (2 Bft)
16/01/2008 23:00 7,1 C 97 % 1005,7 hPa 0,0 l/m 6,5 km/h (2 Bft) O-NO 0,00 h 0,000 mm 0 W/m 6,6 C 6,0 C 8,4 km/h (2 Bft)
17/01/2008 00:00 6,3 C 96 % 1005,8 hPa 0,0 l/m 6,1 km/h (2 Bft) O-NO 0,00 h 0,000 mm 0 W/m 5,7 C 5,2 C 7,9 km/h (2 Bft)
17/01/2008 01:00 6,0 C 95 % 1006,1 hPa 0,0 l/m 5,2 km/h (1 Bft) O-NO 0,00 h 0,000 mm 0 W/m 5,3 C 5,1 C 6,8 km/h (2 Bft)
17/01/2008 02:00 5,6 C 94 % 1006,5 hPa 0,2 l/m 4,4 km/h (1 Bft) O-NO 0,00 h 0,000 mm 0 W/m 4,7 C 5,0 C 6,8 km/h (2 Bft)
17/01/2008 03:00 6,0 C 93 % 1007,2 hPa 0,0 l/m 3,3 km/h (1 Bft) NO 0,00 h 0,000 mm 0 W/m 5,0 C 5,8 C 5,0 km/h (1 Bft)
17/01/2008 04:00 6,1 C 93 % 1007,7 hPa 0,0 l/m 4,7 km/h (1 Bft) NO 0,00 h 0,000 mm 0 W/m 5,0 C 5,5 C 6,7 km/h (2 Bft)
17/01/2008 05:00 6,0 C 92 % 1008,0 hPa 0,0 l/m 4,9 km/h (1 Bft) O-NO 0,00 h 0,000 mm 0 W/m 4,8 C 5,2 C 6,9 km/h (2 Bft)
17/01/2008 06:00 5,7 C 91 % 1008,7 hPa 0,0 l/m 4,6 km/h (1 Bft) O-NO 0,00 h 0,025 mm 0 W/m 4,3 C 4,9 C 6,7 km/h (2 Bft)
17/01/2008 07:00 5,7 C 91 % 1009,1 hPa 0,0 l/m 4,4 km/h (1 Bft) O-NO 0,00 h 0,025 mm 5 W/m 4,3 C 5,1 C 6,3 km/h (2 Bft)
17/01/2008 08:00 6,1 C 91 % 1009,9 hPa 0,0 l/m 6,4 km/h (2 Bft) O 0,78 h 0,000 mm 58 W/m 4,7 C 4,9 C 9,0 km/h (2 Bft)
17/01/2008 09:00 9,1 C 82 % 1010,6 hPa 0,0 l/m 2,4 km/h (1 Bft) O 1,00 h 0,025 mm 187 W/m 6,1 C 8,9 C 3,7 km/h (1 Bft)
17/01/2008 10:00 10,3 C 72 % 1011,6 hPa 0,0 l/m 3,5 km/h (1 Bft) E-NE 1,00 h 0,102 mm 304 W/m 5,6 C 10,3 C 5,2 km/h (1 Bft)
17/01/2008 11:00 11,7 C 68 % 1012,3 hPa 0,0 l/m 6,0 km/h (2 Bft) SO 1,00 h 0,152 mm 387 W/m 5,9 C 11,7 C 8,4 km/h (2 Bft)
17/01/2008 12:00 12,5 C 59 % 1012,4 hPa 0,0 l/m 4,6 km/h (1 Bft) SO 1,00 h 0,203 mm 421 W/m 4,8 C 12,5 C 7,2 km/h (2 Bft)
17/01/2008 13:00 13,1 C 56 % 1012,2 hPa 0,0 l/m 4,7 km/h (1 Bft) S-SE 1,00 h 0,229 mm 405 W/m 4,4 C 13,1 C 7,5 km/h (2 Bft)
17/01/2008 14:00 13,3 C 55 % 1012,4 hPa 0,0 l/m 3,5 km/h (1 Bft) E-SE 1,00 h 0,229 mm 309 W/m 4,4 C 13,3 C 5,9 km/h (2 Bft)
17/01/2008 15:00 13,2 C 60 % 1012,5 hPa 0,0 l/m 0,0 km/h (0 Bft) N 0,90 h 0,178 mm 173 W/m 5,5 C 13,2 C 0,0 km/h (0 Bft)
17/01/2008 16:00 11,7 C 68 % 1012,9 hPa 0,0 l/m 1,5 km/h (1 Bft) E-SE 0,07 h 0,102 mm 59 W/m 5,9 C 11,7 C 2,2 km/h (1 Bft)
17/01/2008 17:00 9,6 C 79 % 1013,4 hPa 0,0 l/m 1,7 km/h (1 Bft) E 0,02 h 0,051 mm 10 W/m 6,0 C 9,6 C 3,0 km/h (1 Bft)
17/01/2008 18:00 8,8 C 80 % 1014,2 hPa 0,0 l/m 0,7 km/h (0 Bft) E 0,00 h 0,000 mm 0 W/m 5,6 C 8,8 C 1,5 km/h (1 Bft)
17/01/2008 19:00 8,3 C 82 % 1014,5 hPa 0,0 l/m 2,7 km/h (1 Bft) N 0,00 h 0,025 mm 0 W/m 5,4 C 8,2 C 4,2 km/h (1 Bft)
17/01/2008 20:00 7,9 C 82 % 1014,9 hPa 0,0 l/m 1,8 km/h (1 Bft) E 0,00 h 0,025 mm 0 W/m 5,1 C 7,9 C 2,7 km/h (1 Bft)
17/01/2008 21:00 7,2 C 82 % 1015,3 hPa 0,0 l/m 3,5 km/h (1 Bft) S-SO 0,00 h 0,025 mm 0 W/m 4,4 C 6,8 C 4,4 km/h (1 Bft)
17/01/2008 22:00 7,1 C 78 % 1016,0 hPa 0,0 l/m 2,3 km/h (1 Bft) SO 0,00 h 0,025 mm 0 W/m 3,6 C 7,0 C 3,3 km/h (1 Bft)
17/01/2008 23:00 7,4 C 71 % 1016,7 hPa 0,0 l/m 2,3 km/h (1 Bft) O 0,00 h 0,025 mm 0 W/m 2,5 C 7,3 C 3,7 km/h (1 Bft)
18/01/2008 00:00 7,5 C 72 % 1016,4 hPa 0,0 l/m 1,9 km/h (1 Bft) O-NO 0,00 h 0,025 mm 0 W/m 2,7 C 7,4 C 2,9 km/h (1 Bft)
18/01/2008 01:00 8,0 C 65 % 1015,4 hPa 0,0 l/m 4,1 km/h (1 Bft) NO 0,00 h 0,025 mm 0 W/m 1,8 C 7,7 C 5,8 km/h (2 Bft)
18/01/2008 02:00 7,6 C 62 % 1015,6 hPa 0,0 l/m 2,1 km/h (1 Bft) O 0,00 h 0,025 mm 0 W/m 0,7 C 7,4 C 3,4 km/h (1 Bft)
18/01/2008 03:00 7,1 C 62 % 1015,8 hPa 0,0 l/m 2,6 km/h (1 Bft) O 0,00 h 0,025 mm 0 W/m 0,3 C 6,9 C 3,9 km/h (1 Bft)
18/01/2008 04:00 7,1 C 61 % 1016,0 hPa 0,0 l/m 1,5 km/h (1 Bft) N-NE 0,00 h 0,025 mm 0 W/m 0,1 C 7,0 C 2,3 km/h (1 Bft)
18/01/2008 05:00 6,9 C 61 % 1016,0 hPa 0,0 l/m 0,8 km/h (0 Bft) N 0,00 h 0,025 mm 0 W/m -0,1 C 6,9 C 1,7 km/h (1 Bft)
18/01/2008 06:00 6,8 C 62 % 1017,2 hPa 0,0 l/m 2,8 km/h (1 Bft) N 0,00 h 0,025 mm 0 W/m 0,1 C 6,7 C 4,9 km/h (1 Bft)
18/01/2008 07:00 7,1 C 70 % 1018,3 hPa 0,0 l/m 2,7 km/h (1 Bft) N 0,00 h 0,025 mm 5 W/m 2,0 C 6,9 C 4,8 km/h (1 Bft)
18/01/2008 08:00 7,3 C 76 % 1018,9 hPa 0,0 l/m 4,7 km/h (1 Bft) NO 0,78 h 0,025 mm 48 W/m 3,2 C 6,7 C 6,9 km/h (2 Bft)
18/01/2008 09:00 10,2 C 71 % 1019,6 hPa 0,0 l/m 1,6 km/h (1 Bft) N-NO 1,00 h 0,025 mm 177 W/m 5,1 C 10,1 C 3,2 km/h (1 Bft)
18/01/2008 10:00 11,9 C 64 % 1020,6 hPa 0,0 l/m 3,1 km/h (1 Bft) NE 1,00 h 0,102 mm 297 W/m 5,4 C 11,9 C 5,2 km/h (1 Bft)
18/01/2008 11:00 12,9 C 63 % 1021,5 hPa 0,0 l/m 5,6 km/h (1 Bft) NE 1,00 h 0,152 mm 376 W/m 6,0 C 12,9 C 8,6 km/h (2 Bft)
18/01/2008 12:00 13,4 C 62 % 1021,7 hPa 0,0 l/m 5,8 km/h (2 Bft) E 1,00 h 0,203 mm 412 W/m 6,2 C 13,4 C 8,9 km/h (2 Bft)
18/01/2008 13:00 13,1 C 65 % 1021,3 hPa 0,0 l/m 4,4 km/h (1 Bft) E-SE 1,00 h 0,229 mm 389 W/m 6,6 C 13,1 C 7,2 km/h (2 Bft)
18/01/2008 14:00 13,1 C 66 % 1021,5 hPa 0,0 l/m 2,0 km/h (1 Bft) SE 0,90 h 0,203 mm 305 W/m 6,9 C 13,1 C 3,9 km/h (1 Bft)
18/01/2008 15:00 12,7 C 67 % 1022,0 hPa 0,0 l/m 1,3 km/h (1 Bft) SE 0,82 h 0,152 mm 185 W/m 6,7 C 12,7 C 3,0 km/h (1 Bft)
18/01/2008 16:00 12,1 C 73 % 1022,8 hPa 0,0 l/m 3,8 km/h (1 Bft) S-SE 0,93 h 0,102 mm 88 W/m 7,3 C 12,1 C 5,3 km/h (1 Bft)
18/01/2008 17:00 10,4 C 79 % 1023,3 hPa 0,0 l/m 1,8 km/h (1 Bft) S-SE 0,15 h 0,051 mm 12 W/m 6,9 C 10,4 C 2,7 km/h (1 Bft)
18/01/2008 18:00 9,4 C 83 % 1023,9 hPa 0,0 l/m 0,9 km/h (0 Bft) S-SE 0,00 h 0,000 mm 0 W/m 6,6 C 9,4 C 1,4 km/h (1 Bft)
18/01/2008 19:00 9,2 C 86 % 1024,7 hPa 0,0 l/m 2,2 km/h (1 Bft) S-SE 0,00 h 0,025 mm 0 W/m 6,9 C 9,1 C 3,0 km/h (1 Bft)
18/01/2008 20:00 9,2 C 83 % 1025,0 hPa 0,0 l/m 1,9 km/h (1 Bft) O 0,00 h 0,025 mm 0 W/m 6,5 C 9,1 C 2,7 km/h (1 Bft)
18/01/2008 21:00 8,7 C 83 % 1025,3 hPa 0,0 l/m 2,0 km/h (1 Bft) O-SO 0,00 h 0,025 mm 0 W/m 6,0 C 8,7 C 3,2 km/h (1 Bft)
18/01/2008 22:00 8,8 C 83 % 1025,7 hPa 0,0 l/m 1,5 km/h (1 Bft) O-SO 0,00 h 0,025 mm 0 W/m 5,9 C 8,7 C 2,2 km/h (1 Bft)
18/01/2008 23:00 8,5 C 82 % 1025,8 hPa 0,0 l/m 2,9 km/h (1 Bft) O-SO 0,00 h 0,025 mm 0 W/m 5,6 C 8,4 C 4,6 km/h (1 Bft)
19/01/2008 00:00 8,5 C 82 % 1025,8 hPa 0,0 l/m 3,1 km/h (1 Bft) O 0,00 h 0,025 mm 0 W/m 5,6 C 8,4 C 4,8 km/h (1 Bft)
19/01/2008 01:00 8,0 C 82 % 1025,9 hPa 0,0 l/m 4,1 km/h (1 Bft) O 0,00 h 0,025 mm 0 W/m 5,1 C 7,7 C 5,5 km/h (1 Bft)
19/01/2008 02:00 8,0 C 82 % 1025,8 hPa 0,0 l/m 4,1 km/h (1 Bft) O-NO 0,00 h 0,025 mm 0 W/m 5,1 C 7,6 C 5,8 km/h (2 Bft)
19/01/2008 03:00 8,1 C 82 % 1025,7 hPa 0,0 l/m 3,5 km/h (1 Bft) NO 0,00 h 0,025 mm 0 W/m 5,2 C 8,0 C 5,3 km/h (1 Bft)
19/01/2008 04:00 7,9 C 84 % 1025,8 hPa 0,0 l/m 1,7 km/h (1 Bft) NO 0,00 h 0,025 mm 0 W/m 5,4 C 7,9 C 2,4 km/h (1 Bft)
19/01/2008 05:00 7,5 C 85 % 1026,2 hPa 0,0 l/m 3,4 km/h (1 Bft) NO 0,00 h 0,025 mm 0 W/m 5,2 C 7,4 C 4,9 km/h (1 Bft)
19/01/2008 06:00 7,4 C 85 % 1026,5 hPa 0,0 l/m 4,1 km/h (1 Bft) NO 0,00 h 0,025 mm 0 W/m 5,0 C 7,0 C 5,7 km/h (1 Bft)
19/01/2008 07:00 7,6 C 86 % 1026,7 hPa 0,0 l/m 4,1 km/h (1 Bft) O-NO 0,00 h 0,025 mm 0 W/m 5,3 C 7,3 C 6,2 km/h (2 Bft)
19/01/2008 08:00 8,1 C 85 % 1027,2 hPa 0,0 l/m 3,3 km/h (1 Bft) NO 0,82 h 0,000 mm 56 W/m 5,7 C 7,9 C 5,2 km/h (1 Bft)
19/01/2008 09:00 9,9 C 76 % 1027,4 hPa 0,0 l/m 2,4 km/h (1 Bft) O-NO 1,00 h 0,025 mm 172 W/m 5,9 C 9,7 C 3,9 km/h (1 Bft)
19/01/2008 10:00 12,3 C 72 % 1027,5 hPa 0,0 l/m 2,1 km/h (1 Bft) NO 1,00 h 0,102 mm 294 W/m 7,3 C 12,3 C 3,4 km/h (1 Bft)
19/01/2008 11:00 13,0 C 70 % 1027,7 hPa 0,0 l/m 2,9 km/h (1 Bft) E 1,00 h 0,152 mm 381 W/m 7,7 C 13,0 C 5,2 km/h (1 Bft)
19/01/2008 12:00 13,7 C 68 % 1027,2 hPa 0,0 l/m 5,2 km/h (1 Bft) E 0,98 h 0,203 mm 430 W/m 7,8 C 13,7 C 8,6 km/h (2 Bft)
19/01/2008 13:00 13,1 C 75 % 1026,7 hPa 0,0 l/m 5,9 km/h (2 Bft) E-NE 0,33 h 0,229 mm 187 W/m 8,7 C 13,1 C 9,0 km/h (2 Bft)
19/01/2008 14:00 12,0 C 82 % 1026,7 hPa 0,0 l/m 4,9 km/h (1 Bft) E 0,00 h 0,127 mm 86 W/m 8,9 C 12,0 C 7,0 km/h (2 Bft)
19/01/2008 15:00 11,4 C 86 % 1026,9 hPa 0,0 l/m 3,5 km/h (1 Bft) E 0,00 h 0,051 mm 51 W/m 9,2 C 11,4 C 5,2 km/h (1 Bft)
19/01/2008 16:00 11,1 C 87 % 1027,0 hPa 0,0 l/m 1,8 km/h (1 Bft) E 0,00 h 0,025 mm 18 W/m 9,1 C 11,1 C 3,2 km/h (1 Bft)
19/01/2008 17:00 10,7 C 88 % 1027,3 hPa 0,0 l/m 0,3 km/h (0 Bft) E 0,00 h 0,025 mm 5 W/m 8,8 C 10,7 C 0,5 km/h (0 Bft)
19/01/2008 18:00 10,4 C 88 % 1027,5 hPa 0,0 l/m 0,0 km/h (0 Bft) N 0,00 h 0,000 mm 0 W/m 8,6 C 10,4 C 0,0 km/h (0 Bft)
19/01/2008 19:00 10,3 C 89 % 1027,6 hPa 0,0 l/m 0,1 km/h (0 Bft) E 0,00 h 0,000 mm 0 W/m 8,6 C 10,3 C 0,4 km/h (0 Bft)
19/01/2008 20:00 10,3 C 89 % 1027,5 hPa 0,0 l/m 1,3 km/h (1 Bft) NO 0,00 h 0,000 mm 0 W/m 8,6 C 10,3 C 2,0 km/h (1 Bft)
19/01/2008 21:00 10,1 C 89 % 1027,4 hPa 0,0 l/m 1,9 km/h (1 Bft) NO 0,00 h 0,025 mm 0 W/m 8,3 C 10,1 C 3,6 km/h (1 Bft)
19/01/2008 22:00 9,8 C 89 % 1027,4 hPa 0,0 l/m 3,6 km/h (1 Bft) NO 0,00 h 0,025 mm 0 W/m 8,0 C 9,7 C 5,4 km/h (1 Bft)
19/01/2008 23:00 9,7 C 87 % 1027,5 hPa 0,0 l/m 6,6 km/h (2 Bft) O-NO 0,00 h 0,025 mm 0 W/m 7,6 C 8,9 C 9,3 km/h (2 Bft)
20/01/2008 00:00 8,9 C 86 % 1027,5 hPa 0,0 l/m 4,1 km/h (1 Bft) NO 0,00 h 0,025 mm 0 W/m 6,7 C 8,7 C 7,1 km/h (2 Bft)
20/01/2008 01:00 7,9 C 87 % 1027,5 hPa 0,0 l/m 4,2 km/h (1 Bft) NO 0,00 h 0,025 mm 0 W/m 5,8 C 7,5 C 6,0 km/h (2 Bft)
20/01/2008 02:00 7,6 C 88 % 1027,5 hPa 0,0 l/m 3,7 km/h (1 Bft) NO 0,00 h 0,025 mm 0 W/m 5,7 C 7,3 C 5,4 km/h (1 Bft)
20/01/2008 03:00 7,0 C 88 % 1027,4 hPa 0,0 l/m 4,1 km/h (1 Bft) NO 0,00 h 0,025 mm 0 W/m 5,2 C 6,7 C 6,1 km/h (2 Bft)
20/01/2008 04:00 6,8 C 88 % 1027,1 hPa 0,0 l/m 3,3 km/h (1 Bft) O-NO 0,00 h 0,025 mm 0 W/m 5,0 C 6,6 C 5,5 km/h (1 Bft)
20/01/2008 05:00 6,8 C 89 % 1027,1 hPa 0,0 l/m 3,4 km/h (1 Bft) O-NO 0,00 h 0,025 mm 0 W/m 5,1 C 6,6 C 5,2 km/h (1 Bft)
20/01/2008 06:00 7,3 C 87 % 1027,3 hPa 0,0 l/m 3,9 km/h (1 Bft) O-NO 0,00 h 0,025 mm 0 W/m 5,3 C 7,0 C 5,9 km/h (2 Bft)
20/01/2008 07:00 7,6 C 84 % 1027,6 hPa 0,0 l/m 3,9 km/h (1 Bft) NO 0,00 h 0,025 mm 5 W/m 5,1 C 7,4 C 6,1 km/h (2 Bft)
20/01/2008 08:00 7,7 C 83 % 1027,8 hPa 0,0 l/m 7,1 km/h (2 Bft) O-NO 0,23 h 0,000 mm 27 W/m 5,0 C 6,5 C 9,7 km/h (2 Bft)
20/01/2008 09:00 8,9 C 82 % 1028,1 hPa 0,0 l/m 8,3 km/h (2 Bft) O-NO 0,60 h 0,025 mm 156 W/m 5,9 C 7,8 C 11,3 km/h (2 Bft)
20/01/2008 10:00 11,5 C 74 % 1028,6 hPa 0,0 l/m 2,5 km/h (1 Bft) O-NO 0,80 h 0,102 mm 261 W/m 7,0 C 11,5 C 3,7 km/h (1 Bft)
20/01/2008 11:00 12,8 C 72 % 1028,9 hPa 0,0 l/m 5,3 km/h (1 Bft) S 0,70 h 0,127 mm 389 W/m 7,8 C 12,8 C 7,8 km/h (2 Bft)
20/01/2008 12:00 12,3 C 74 % 1028,5 hPa 0,0 l/m 5,6 km/h (1 Bft) S-SO 0,00 h 0,203 mm 192 W/m 7,9 C 12,3 C 8,2 km/h (2 Bft)
20/01/2008 13:00 12,4 C 74 % 1027,9 hPa 0,0 l/m 4,6 km/h (1 Bft) S 0,00 h 0,127 mm 167 W/m 7,9 C 12,4 C 7,1 km/h (2 Bft)
20/01/2008 14:00 12,3 C 75 % 1027,3 hPa 0,0 l/m 5,5 km/h (1 Bft) S-SO 0,00 h 0,102 mm 133 W/m 7,9 C 12,3 C 8,0 km/h (2 Bft)
20/01/2008 15:00 12,1 C 77 % 1027,0 hPa 0,0 l/m 5,4 km/h (1 Bft) S-SE 0,00 h 0,076 mm 88 W/m 8,2 C 12,1 C 7,5 km/h (2 Bft)
20/01/2008 16:00 11,4 C 82 % 1027,0 hPa 0,0 l/m 7,3 km/h (2 Bft) S 0,00 h 0,051 mm 28 W/m 8,4 C 11,4 C 9,5 km/h (2 Bft)
20/01/2008 17:00 10,8 C 85 % 1027,1 hPa 0,0 l/m 5,0 km/h (1 Bft) S 0,00 h 0,025 mm 6 W/m 8,4 C 10,8 C 6,7 km/h (2 Bft)
20/01/2008 18:00 10,4 C 87 % 1027,1 hPa 0,0 l/m 3,0 km/h (1 Bft) S 0,00 h 0,025 mm 0 W/m 8,3 C 10,4 C 4,3 km/h (1 Bft)
20/01/2008 19:00 10,2 C 87 % 1027,2 hPa 0,0 l/m 3,0 km/h (1 Bft) S 0,00 h 0,025 mm 0 W/m 8,1 C 10,2 C 4,3 km/h (1 Bft)
20/01/2008 20:00 10,0 C 87 % 1027,5 hPa 0,0 l/m 1,3 km/h (1 Bft) S 0,00 h 0,025 mm 0 W/m 8,0 C 10,0 C 2,0 km/h (1 Bft)
20/01/2008 21:00 10,0 C 86 % 1027,5 hPa 0,0 l/m 1,0 km/h (0 Bft) S 0,00 h 0,025 mm 0 W/m 7,9 C 10,0 C 1,9 km/h (1 Bft)
20/01/2008 22:00 9,9 C 86 % 1027,4 hPa 0,0 l/m 3,3 km/h (1 Bft) O 0,00 h 0,025 mm 0 W/m 7,7 C 9,8 C 4,7 km/h (1 Bft)
20/01/2008 23:00 9,8 C 85 % 1027,4 hPa 0,0 l/m 2,8 km/h (1 Bft) SO 0,00 h 0,025 mm 0 W/m 7,5 C 9,8 C 4,4 km/h (1 Bft)
Min-Date _ 15/01/08 17/01/08 16/01/08 - 14/01/08 - - - - 18/01/08 15/01/08 14/01/08
_ Min-Heure 05:16 13:06 16:30 - 01:53 - - - - 05:47 05:00 01:53
Minimum _ 4,9 C 49 % 1001,3 hPa - 0,0 km/h (0 Bft) - - - - -0,5 C 1,8 C 0,0 km/h (0 Bft)
Max-Date _ 19/01/08 15/01/08 20/01/08 14/01/08 15/01/08 - 14/01/08 17/01/08 20/01/08 16/01/08 19/01/08 14/01/08
_ Max-Heure 12:51 00:17 11:00 21:14 14:42 - 08:14 13:00 11:36 13:21 12:51 22:34
Maximum _ 14,3 C 100 % 1029,0 hPa 8,0 l/m 19,3 km/h
SO (3 Bft)
- 0,02 h 0,229 mm 612 W/m 9,8 C 14,3 C 27,4 km/h
N (4 Bft)
Moyenne _ 8,7 C 84 % 1017,6 hPa #73,6 l/m 4,0 km/h (1 Bft) NO #26:39 h #7,212 mm 140 W/m 6,0 C 8,4 C 6,1 km/h (2 Bft)
Roquefort les pins